sensor_id;sensor_type;location;lat;lon;timestamp;P1;durP1;ratioP1;P2;durP2;ratioP2
42066;SDS011;27734;47.028;28.820;2023-05-07T00:01:32;6.13;;;2.70;;
42066;SDS011;27734;47.028;28.820;2023-05-07T00:04:01;4.87;;;2.80;;
42066;SDS011;27734;47.028;28.820;2023-05-07T00:06:31;5.70;;;2.47;;
42066;SDS011;27734;47.028;28.820;2023-05-07T00:09:00;5.57;;;2.60;;
42066;SDS011;27734;47.028;28.820;2023-05-07T00:11:30;4.30;;;2.30;;
42066;SDS011;27734;47.028;28.820;2023-05-07T00:13:59;5.77;;;2.87;;
42066;SDS011;27734;47.028;28.820;2023-05-07T00:16:28;8.65;;;3.00;;
42066;SDS011;27734;47.028;28.820;2023-05-07T00:18:56;7.07;;;2.60;;
42066;SDS011;27734;47.028;28.820;2023-05-07T00:21:25;4.53;;;2.43;;
42066;SDS011;27734;47.028;28.820;2023-05-07T00:23:53;9.20;;;3.17;;
42066;SDS011;27734;47.028;28.820;2023-05-07T00:26:22;3.63;;;2.47;;
42066;SDS011;27734;47.028;28.820;2023-05-07T00:28:51;5.50;;;2.83;;
42066;SDS011;27734;47.028;28.820;2023-05-07T00:31:20;7.50;;;3.33;;
42066;SDS011;27734;47.028;28.820;2023-05-07T00:33:48;6.33;;;3.00;;
42066;SDS011;27734;47.028;28.820;2023-05-07T00:36:17;4.43;;;2.73;;
42066;SDS011;27734;47.028;28.820;2023-05-07T00:38:45;5.17;;;2.60;;
42066;SDS011;27734;47.028;28.820;2023-05-07T00:41:14;7.13;;;2.77;;
42066;SDS011;27734;47.028;28.820;2023-05-07T00:43:42;5.67;;;2.67;;
42066;SDS011;27734;47.028;28.820;2023-05-07T00:46:11;9.87;;;2.70;;
42066;SDS011;27734;47.028;28.820;2023-05-07T00:48:42;4.93;;;2.80;;
42066;SDS011;27734;47.028;28.820;2023-05-07T00:51:11;5.73;;;3.00;;
42066;SDS011;27734;47.028;28.820;2023-05-07T00:53:40;5.07;;;2.83;;
42066;SDS011;27734;47.028;28.820;2023-05-07T00:56:09;8.13;;;2.67;;
42066;SDS011;27734;47.028;28.820;2023-05-07T00:58:38;6.67;;;3.03;;
42066;SDS011;27734;47.028;28.820;2023-05-07T01:01:08;4.05;;;2.80;;
42066;SDS011;27734;47.028;28.820;2023-05-07T01:03:37;7.73;;;2.97;;
42066;SDS011;27734;47.028;28.820;2023-05-07T01:06:05;9.40;;;3.27;;
42066;SDS011;27734;47.028;28.820;2023-05-07T01:08:35;7.25;;;3.10;;
42066;SDS011;27734;47.028;28.820;2023-05-07T01:11:06;11.50;;;3.20;;
42066;SDS011;27734;47.028;28.820;2023-05-07T01:13:36;8.33;;;2.80;;
42066;SDS011;27734;47.028;28.820;2023-05-07T01:16:06;8.87;;;3.00;;
42066;SDS011;27734;47.028;28.820;2023-05-07T01:18:36;7.45;;;3.00;;
42066;SDS011;27734;47.028;28.820;2023-05-07T01:21:04;8.67;;;3.13;;
42066;SDS011;27734;47.028;28.820;2023-05-07T01:23:34;4.83;;;2.87;;
42066;SDS011;27734;47.028;28.820;2023-05-07T01:26:03;5.90;;;2.83;;
42066;SDS011;27734;47.028;28.820;2023-05-07T01:28:32;5.13;;;2.83;;
42066;SDS011;27734;47.028;28.820;2023-05-07T01:31:02;10.23;;;3.43;;
42066;SDS011;27734;47.028;28.820;2023-05-07T01:33:34;6.77;;;2.90;;
42066;SDS011;27734;47.028;28.820;2023-05-07T01:36:06;5.90;;;2.97;;
42066;SDS011;27734;47.028;28.820;2023-05-07T01:38:36;5.87;;;2.80;;
42066;SDS011;27734;47.028;28.820;2023-05-07T01:41:06;6.87;;;3.20;;
42066;SDS011;27734;47.028;28.820;2023-05-07T01:43:35;6.47;;;3.00;;
42066;SDS011;27734;47.028;28.820;2023-05-07T01:46:04;7.80;;;3.10;;
42066;SDS011;27734;47.028;28.820;2023-05-07T01:48:33;9.03;;;3.03;;
42066;SDS011;27734;47.028;28.820;2023-05-07T01:51:02;5.73;;;3.20;;
42066;SDS011;27734;47.028;28.820;2023-05-07T01:53:35;9.87;;;2.97;;
42066;SDS011;27734;47.028;28.820;2023-05-07T01:56:05;7.20;;;3.10;;
42066;SDS011;27734;47.028;28.820;2023-05-07T01:58:35;5.87;;;2.90;;
42066;SDS011;27734;47.028;28.820;2023-05-07T02:01:03;6.67;;;2.87;;
42066;SDS011;27734;47.028;28.820;2023-05-07T02:03:32;6.40;;;3.00;;
42066;SDS011;27734;47.028;28.820;2023-05-07T02:06:05;6.63;;;2.70;;
42066;SDS011;27734;47.028;28.820;2023-05-07T02:08:37;8.20;;;3.07;;
42066;SDS011;27734;47.028;28.820;2023-05-07T02:11:06;9.30;;;3.27;;
42066;SDS011;27734;47.028;28.820;2023-05-07T02:13:36;6.33;;;3.00;;
42066;SDS011;27734;47.028;28.820;2023-05-07T02:16:05;6.60;;;3.00;;
42066;SDS011;27734;47.028;28.820;2023-05-07T02:18:34;4.47;;;2.87;;
42066;SDS011;27734;47.028;28.820;2023-05-07T02:21:02;7.47;;;3.30;;
42066;SDS011;27734;47.028;28.820;2023-05-07T02:23:31;8.93;;;3.00;;
42066;SDS011;27734;47.028;28.820;2023-05-07T02:26:04;7.70;;;3.20;;
42066;SDS011;27734;47.028;28.820;2023-05-07T02:28:32;7.27;;;3.37;;
42066;SDS011;27734;47.028;28.820;2023-05-07T02:31:03;10.10;;;3.70;;
42066;SDS011;27734;47.028;28.820;2023-05-07T02:33:32;9.77;;;3.20;;
42066;SDS011;27734;47.028;28.820;2023-05-07T02:36:06;9.20;;;3.40;;
42066;SDS011;27734;47.028;28.820;2023-05-07T02:38:38;6.35;;;3.20;;
42066;SDS011;27734;47.028;28.820;2023-05-07T02:41:07;8.67;;;3.17;;
42066;SDS011;27734;47.028;28.820;2023-05-07T02:43:35;7.47;;;3.50;;
42066;SDS011;27734;47.028;28.820;2023-05-07T02:46:04;7.47;;;3.43;;
42066;SDS011;27734;47.028;28.820;2023-05-07T02:48:37;14.38;;;3.80;;
42066;SDS011;27734;47.028;28.820;2023-05-07T02:51:06;6.37;;;3.20;;
42066;SDS011;27734;47.028;28.820;2023-05-07T02:53:35;9.07;;;3.50;;
42066;SDS011;27734;47.028;28.820;2023-05-07T02:56:04;9.35;;;3.40;;
42066;SDS011;27734;47.028;28.820;2023-05-07T02:58:33;6.87;;;3.23;;
42066;SDS011;27734;47.028;28.820;2023-05-07T03:01:02;7.93;;;3.87;;
42066;SDS011;27734;47.028;28.820;2023-05-07T03:03:36;7.67;;;3.50;;
42066;SDS011;27734;47.028;28.820;2023-05-07T03:06:04;8.10;;;3.60;;
42066;SDS011;27734;47.028;28.820;2023-05-07T03:08:33;10.03;;;3.50;;
42066;SDS011;27734;47.028;28.820;2023-05-07T03:11:03;7.53;;;3.60;;
42066;SDS011;27734;47.028;28.820;2023-05-07T03:13:31;9.33;;;4.10;;
42066;SDS011;27734;47.028;28.820;2023-05-07T03:16:00;11.50;;;3.47;;
42066;SDS011;27734;47.028;28.820;2023-05-07T03:18:28;6.60;;;3.47;;
42066;SDS011;27734;47.028;28.820;2023-05-07T03:20:57;8.27;;;3.53;;
42066;SDS011;27734;47.028;28.820;2023-05-07T03:23:26;10.63;;;3.57;;
42066;SDS011;27734;47.028;28.820;2023-05-07T03:25:54;8.23;;;3.67;;
42066;SDS011;27734;47.028;28.820;2023-05-07T03:28:23;5.63;;;3.40;;
42066;SDS011;27734;47.028;28.820;2023-05-07T03:30:55;8.53;;;3.47;;
42066;SDS011;27734;47.028;28.820;2023-05-07T03:33:24;7.73;;;3.20;;
42066;SDS011;27734;47.028;28.820;2023-05-07T03:35:54;7.50;;;3.37;;
42066;SDS011;27734;47.028;28.820;2023-05-07T03:38:24;9.33;;;3.63;;
42066;SDS011;27734;47.028;28.820;2023-05-07T03:40:53;9.00;;;3.40;;
42066;SDS011;27734;47.028;28.820;2023-05-07T03:43:22;8.87;;;3.27;;
42066;SDS011;27734;47.028;28.820;2023-05-07T03:45:56;7.73;;;3.67;;
42066;SDS011;27734;47.028;28.820;2023-05-07T03:48:26;7.90;;;3.60;;
42066;SDS011;27734;47.028;28.820;2023-05-07T03:50:56;8.30;;;3.87;;
42066;SDS011;27734;47.028;28.820;2023-05-07T03:53:28;6.20;;;3.50;;
42066;SDS011;27734;47.028;28.820;2023-05-07T03:55:57;5.47;;;3.30;;
42066;SDS011;27734;47.028;28.820;2023-05-07T03:58:25;8.67;;;3.53;;
42066;SDS011;27734;47.028;28.820;2023-05-07T04:01:11;11.87;;;3.60;;
42066;SDS011;27734;47.028;28.820;2023-05-07T04:03:39;7.70;;;3.92;;
42066;SDS011;27734;47.028;28.820;2023-05-07T04:06:08;12.07;;;3.50;;
42066;SDS011;27734;47.028;28.820;2023-05-07T04:08:37;8.17;;;3.63;;
42066;SDS011;27734;47.028;28.820;2023-05-07T04:11:06;8.33;;;3.57;;
42066;SDS011;27734;47.028;28.820;2023-05-07T04:13:36;8.33;;;3.57;;
42066;SDS011;27734;47.028;28.820;2023-05-07T04:16:06;10.33;;;3.67;;
42066;SDS011;27734;47.028;28.820;2023-05-07T04:18:36;11.13;;;3.60;;
42066;SDS011;27734;47.028;28.820;2023-05-07T04:21:05;7.45;;;3.80;;
42066;SDS011;27734;47.028;28.820;2023-05-07T04:23:41;9.20;;;3.67;;
42066;SDS011;27734;47.028;28.820;2023-05-07T04:26:10;7.30;;;3.53;;
42066;SDS011;27734;47.028;28.820;2023-05-07T04:28:42;5.80;;;3.57;;
42066;SDS011;27734;47.028;28.820;2023-05-07T04:31:10;7.70;;;3.90;;
42066;SDS011;27734;47.028;28.820;2023-05-07T04:33:39;7.35;;;3.50;;
42066;SDS011;27734;47.028;28.820;2023-05-07T04:36:10;7.17;;;3.70;;
42066;SDS011;27734;47.028;28.820;2023-05-07T04:38:44;8.03;;;3.60;;
42066;SDS011;27734;47.028;28.820;2023-05-07T04:41:13;8.67;;;3.90;;
42066;SDS011;27734;47.028;28.820;2023-05-07T04:43:45;10.50;;;3.75;;
42066;SDS011;27734;47.028;28.820;2023-05-07T04:46:15;9.93;;;3.97;;
42066;SDS011;27734;47.028;28.820;2023-05-07T04:48:43;8.05;;;3.60;;
42066;SDS011;27734;47.028;28.820;2023-05-07T04:51:12;7.90;;;3.83;;
42066;SDS011;27734;47.028;28.820;2023-05-07T04:53:41;9.37;;;4.30;;
42066;SDS011;27734;47.028;28.820;2023-05-07T04:56:09;9.90;;;3.70;;
42066;SDS011;27734;47.028;28.820;2023-05-07T04:58:41;7.53;;;3.60;;
42066;SDS011;27734;47.028;28.820;2023-05-07T05:01:09;8.17;;;3.57;;
42066;SDS011;27734;47.028;28.820;2023-05-07T05:03:38;7.43;;;3.50;;
42066;SDS011;27734;47.028;28.820;2023-05-07T05:06:08;8.67;;;3.90;;
42066;SDS011;27734;47.028;28.820;2023-05-07T05:08:37;9.37;;;4.23;;
42066;SDS011;27734;47.028;28.820;2023-05-07T05:11:05;7.90;;;3.90;;
42066;SDS011;27734;47.028;28.820;2023-05-07T05:13:35;7.60;;;3.70;;
42066;SDS011;27734;47.028;28.820;2023-05-07T05:16:10;11.73;;;4.40;;
42066;SDS011;27734;47.028;28.820;2023-05-07T05:18:39;11.20;;;4.27;;
42066;SDS011;27734;47.028;28.820;2023-05-07T05:21:08;5.53;;;3.77;;
42066;SDS011;27734;47.028;28.820;2023-05-07T05:23:37;8.63;;;3.83;;
42066;SDS011;27734;47.028;28.820;2023-05-07T05:26:06;8.80;;;4.20;;
42066;SDS011;27734;47.028;28.820;2023-05-07T05:28:35;10.63;;;4.10;;
42066;SDS011;27734;47.028;28.820;2023-05-07T05:31:04;10.23;;;4.30;;
42066;SDS011;27734;47.028;28.820;2023-05-07T05:33:35;10.07;;;4.20;;
42066;SDS011;27734;47.028;28.820;2023-05-07T05:36:05;12.37;;;4.07;;
42066;SDS011;27734;47.028;28.820;2023-05-07T05:38:37;8.70;;;4.50;;
42066;SDS011;27734;47.028;28.820;2023-05-07T05:41:06;10.07;;;4.30;;
42066;SDS011;27734;47.028;28.820;2023-05-07T05:43:35;11.53;;;4.43;;
42066;SDS011;27734;47.028;28.820;2023-05-07T05:46:04;8.37;;;4.37;;
42066;SDS011;27734;47.028;28.820;2023-05-07T05:48:33;10.57;;;4.27;;
42066;SDS011;27734;47.028;28.820;2023-05-07T05:51:02;7.97;;;4.27;;
42066;SDS011;27734;47.028;28.820;2023-05-07T05:53:30;8.70;;;4.43;;
42066;SDS011;27734;47.028;28.820;2023-05-07T05:55:59;13.35;;;4.80;;
42066;SDS011;27734;47.028;28.820;2023-05-07T05:58:29;11.80;;;4.40;;
42066;SDS011;27734;47.028;28.820;2023-05-07T06:01:00;7.93;;;4.03;;
42066;SDS011;27734;47.028;28.820;2023-05-07T06:03:30;10.93;;;4.17;;
42066;SDS011;27734;47.028;28.820;2023-05-07T06:06:00;11.40;;;4.60;;
42066;SDS011;27734;47.028;28.820;2023-05-07T06:08:29;8.27;;;4.07;;
42066;SDS011;27734;47.028;28.820;2023-05-07T06:10:59;9.70;;;4.23;;
42066;SDS011;27734;47.028;28.820;2023-05-07T06:13:30;14.17;;;4.40;;
42066;SDS011;27734;47.028;28.820;2023-05-07T06:15:58;9.40;;;4.50;;
42066;SDS011;27734;47.028;28.820;2023-05-07T06:18:27;8.87;;;4.50;;
42066;SDS011;27734;47.028;28.820;2023-05-07T06:20:56;11.27;;;4.67;;
42066;SDS011;27734;47.028;28.820;2023-05-07T06:23:26;10.53;;;4.40;;
42066;SDS011;27734;47.028;28.820;2023-05-07T06:25:55;12.37;;;3.97;;
42066;SDS011;27734;47.028;28.820;2023-05-07T06:28:27;11.03;;;4.73;;
42066;SDS011;27734;47.028;28.820;2023-05-07T06:31:11;11.27;;;4.50;;
42066;SDS011;27734;47.028;28.820;2023-05-07T06:33:40;9.30;;;4.40;;
42066;SDS011;27734;47.028;28.820;2023-05-07T06:36:09;8.20;;;3.97;;
42066;SDS011;27734;47.028;28.820;2023-05-07T06:38:38;7.67;;;3.67;;
42066;SDS011;27734;47.028;28.820;2023-05-07T06:41:07;11.27;;;3.80;;
42066;SDS011;27734;47.028;28.820;2023-05-07T06:43:38;7.97;;;4.17;;
42066;SDS011;27734;47.028;28.820;2023-05-07T06:46:33;10.33;;;3.80;;
42066;SDS011;27734;47.028;28.820;2023-05-07T06:49:01;11.40;;;4.37;;
42066;SDS011;27734;47.028;28.820;2023-05-07T06:51:30;10.30;;;3.90;;
42066;SDS011;27734;47.028;28.820;2023-05-07T06:54:02;6.60;;;3.70;;
42066;SDS011;27734;47.028;28.820;2023-05-07T06:56:31;9.47;;;4.60;;
42066;SDS011;27734;47.028;28.820;2023-05-07T06:59:01;10.00;;;4.23;;
42066;SDS011;27734;47.028;28.820;2023-05-07T07:01:33;8.60;;;4.10;;
42066;SDS011;27734;47.028;28.820;2023-05-07T07:04:03;7.67;;;4.10;;
42066;SDS011;27734;47.028;28.820;2023-05-07T07:06:32;8.43;;;4.00;;
42066;SDS011;27734;47.028;28.820;2023-05-07T07:09:01;9.40;;;4.20;;
42066;SDS011;27734;47.028;28.820;2023-05-07T07:11:30;9.73;;;4.20;;
42066;SDS011;27734;47.028;28.820;2023-05-07T07:13:59;9.53;;;4.40;;
42066;SDS011;27734;47.028;28.820;2023-05-07T07:16:29;6.70;;;4.03;;
42066;SDS011;27734;47.028;28.820;2023-05-07T07:18:57;10.27;;;4.30;;
42066;SDS011;27734;47.028;28.820;2023-05-07T07:21:27;11.77;;;4.27;;
42066;SDS011;27734;47.028;28.820;2023-05-07T07:23:55;9.20;;;3.80;;
42066;SDS011;27734;47.028;28.820;2023-05-07T07:26:24;8.07;;;4.20;;
42066;SDS011;27734;47.028;28.820;2023-05-07T07:28:53;9.03;;;4.30;;
42066;SDS011;27734;47.028;28.820;2023-05-07T07:31:22;8.40;;;4.27;;
42066;SDS011;27734;47.028;28.820;2023-05-07T07:33:51;6.83;;;4.00;;
42066;SDS011;27734;47.028;28.820;2023-05-07T07:36:20;10.57;;;4.60;;
42066;SDS011;27734;47.028;28.820;2023-05-07T07:38:49;8.37;;;3.70;;
42066;SDS011;27734;47.028;28.820;2023-05-07T07:41:17;12.70;;;3.90;;
42066;SDS011;27734;47.028;28.820;2023-05-07T07:43:46;10.83;;;4.57;;
42066;SDS011;27734;47.028;28.820;2023-05-07T07:46:15;11.30;;;4.20;;
42066;SDS011;27734;47.028;28.820;2023-05-07T07:48:44;6.97;;;4.00;;
42066;SDS011;27734;47.028;28.820;2023-05-07T07:51:13;10.00;;;4.00;;
42066;SDS011;27734;47.028;28.820;2023-05-07T07:53:41;11.33;;;4.30;;
42066;SDS011;27734;47.028;28.820;2023-05-07T07:56:10;7.40;;;4.17;;
42066;SDS011;27734;47.028;28.820;2023-05-07T07:58:39;10.13;;;4.00;;
42066;SDS011;27734;47.028;28.820;2023-05-07T08:01:08;9.87;;;4.00;;
42066;SDS011;27734;47.028;28.820;2023-05-07T08:03:36;8.97;;;3.80;;
42066;SDS011;27734;47.028;28.820;2023-05-07T08:06:05;10.10;;;4.43;;
42066;SDS011;27734;47.028;28.820;2023-05-07T08:08:35;5.33;;;3.80;;
42066;SDS011;27734;47.028;28.820;2023-05-07T08:11:04;8.70;;;3.60;;
42066;SDS011;27734;47.028;28.820;2023-05-07T08:13:33;7.90;;;3.93;;
42066;SDS011;27734;47.028;28.820;2023-05-07T08:16:02;10.10;;;4.43;;
42066;SDS011;27734;47.028;28.820;2023-05-07T08:18:31;7.13;;;3.57;;
42066;SDS011;27734;47.028;28.820;2023-05-07T08:21:01;6.70;;;4.00;;
42066;SDS011;27734;47.028;28.820;2023-05-07T08:23:30;8.97;;;3.40;;
42066;SDS011;27734;47.028;28.820;2023-05-07T08:26:01;8.80;;;3.77;;
42066;SDS011;27734;47.028;28.820;2023-05-07T08:28:30;9.07;;;3.80;;
42066;SDS011;27734;47.028;28.820;2023-05-07T08:30:58;9.17;;;3.57;;
42066;SDS011;27734;47.028;28.820;2023-05-07T08:33:28;10.17;;;4.10;;
42066;SDS011;27734;47.028;28.820;2023-05-07T08:35:57;10.27;;;4.10;;
42066;SDS011;27734;47.028;28.820;2023-05-07T08:38:26;8.80;;;3.40;;
42066;SDS011;27734;47.028;28.820;2023-05-07T08:40:54;10.37;;;3.50;;
42066;SDS011;27734;47.028;28.820;2023-05-07T08:43:23;9.57;;;3.47;;
42066;SDS011;27734;47.028;28.820;2023-05-07T08:45:55;8.97;;;3.70;;
42066;SDS011;27734;47.028;28.820;2023-05-07T08:48:29;8.80;;;3.70;;
42066;SDS011;27734;47.028;28.820;2023-05-07T08:51:05;8.20;;;3.60;;
42066;SDS011;27734;47.028;28.820;2023-05-07T08:53:34;4.90;;;3.70;;
42066;SDS011;27734;47.028;28.820;2023-05-07T08:56:05;6.17;;;3.47;;
42066;SDS011;27734;47.028;28.820;2023-05-07T08:58:35;7.13;;;3.53;;
42066;SDS011;27734;47.028;28.820;2023-05-07T09:01:05;7.37;;;3.40;;
42066;SDS011;27734;47.028;28.820;2023-05-07T09:03:37;7.87;;;3.60;;
42066;SDS011;27734;47.028;28.820;2023-05-07T09:06:06;9.87;;;3.57;;
42066;SDS011;27734;47.028;28.820;2023-05-07T09:08:35;6.65;;;3.60;;
42066;SDS011;27734;47.028;28.820;2023-05-07T09:11:04;11.43;;;4.00;;
42066;SDS011;27734;47.028;28.820;2023-05-07T09:13:33;6.35;;;3.25;;
42066;SDS011;27734;47.028;28.820;2023-05-07T09:16:10;8.23;;;3.47;;
42066;SDS011;27734;47.028;28.820;2023-05-07T09:18:43;5.93;;;3.40;;
42066;SDS011;27734;47.028;28.820;2023-05-07T09:23:43;7.90;;;3.70;;
42066;SDS011;27734;47.028;28.820;2023-05-07T09:26:15;7.10;;;3.30;;
42066;SDS011;27734;47.028;28.820;2023-05-07T09:28:49;7.60;;;3.30;;
42066;SDS011;27734;47.028;28.820;2023-05-07T09:31:19;7.60;;;3.43;;
42066;SDS011;27734;47.028;28.820;2023-05-07T09:33:50;7.87;;;3.47;;
42066;SDS011;27734;47.028;28.820;2023-05-07T09:36:20;9.80;;;3.47;;
42066;SDS011;27734;47.028;28.820;2023-05-07T09:38:49;6.90;;;3.20;;
42066;SDS011;27734;47.028;28.820;2023-05-07T09:41:18;6.30;;;3.23;;
42066;SDS011;27734;47.028;28.820;2023-05-07T09:44:08;6.40;;;3.57;;
42066;SDS011;27734;47.028;28.820;2023-05-07T09:46:43;9.63;;;3.43;;
42066;SDS011;27734;47.028;28.820;2023-05-07T09:49:23;7.67;;;3.17;;
42066;SDS011;27734;47.028;28.820;2023-05-07T09:52:01;9.00;;;3.80;;
42066;SDS011;27734;47.028;28.820;2023-05-07T09:54:33;5.00;;;3.40;;
42066;SDS011;27734;47.028;28.820;2023-05-07T09:57:05;8.57;;;3.37;;
42066;SDS011;27734;47.028;28.820;2023-05-07T09:59:34;10.53;;;3.20;;
42066;SDS011;27734;47.028;28.820;2023-05-07T10:02:07;8.13;;;3.37;;
42066;SDS011;27734;47.028;28.820;2023-05-07T10:04:45;6.80;;;3.40;;
42066;SDS011;27734;47.028;28.820;2023-05-07T10:07:17;5.93;;;3.40;;
42066;SDS011;27734;47.028;28.820;2023-05-07T10:09:48;8.90;;;3.60;;
42066;SDS011;27734;47.028;28.820;2023-05-07T10:12:29;7.13;;;3.10;;
42066;SDS011;27734;47.028;28.820;2023-05-07T10:15:06;6.20;;;3.20;;
42066;SDS011;27734;47.028;28.820;2023-05-07T10:17:38;5.78;;;3.47;;
42066;SDS011;27734;47.028;28.820;2023-05-07T10:20:08;10.20;;;3.53;;
42066;SDS011;27734;47.028;28.820;2023-05-07T10:22:39;7.40;;;3.07;;
42066;SDS011;27734;47.028;28.820;2023-05-07T10:25:14;8.50;;;3.17;;
42066;SDS011;27734;47.028;28.820;2023-05-07T10:27:45;10.68;;;3.37;;
42066;SDS011;27734;47.028;28.820;2023-05-07T10:30:17;5.10;;;3.13;;
42066;SDS011;27734;47.028;28.820;2023-05-07T10:32:55;8.77;;;3.00;;
42066;SDS011;27734;47.028;28.820;2023-05-07T10:35:38;9.37;;;3.10;;
42066;SDS011;27734;47.028;28.820;2023-05-07T10:38:09;7.77;;;2.90;;
42066;SDS011;27734;47.028;28.820;2023-05-07T10:40:39;6.27;;;3.10;;
42066;SDS011;27734;47.028;28.820;2023-05-07T10:43:08;6.30;;;3.00;;
42066;SDS011;27734;47.028;28.820;2023-05-07T10:49:18;6.23;;;3.00;;
42066;SDS011;27734;47.028;28.820;2023-05-07T10:52:14;3.97;;;2.90;;
42066;SDS011;27734;47.028;28.820;2023-05-07T10:55:20;6.17;;;3.10;;
42066;SDS011;27734;47.028;28.820;2023-05-07T11:00:56;7.47;;;3.37;;
42066;SDS011;27734;47.028;28.820;2023-05-07T11:03:29;5.97;;;3.13;;
42066;SDS011;27734;47.028;28.820;2023-05-07T11:06:10;7.63;;;3.03;;
42066;SDS011;27734;47.028;28.820;2023-05-07T11:08:54;7.17;;;2.83;;
42066;SDS011;27734;47.028;28.820;2023-05-07T11:11:53;7.93;;;2.93;;
42066;SDS011;27734;47.028;28.820;2023-05-07T11:14:45;8.40;;;3.00;;
42066;SDS011;27734;47.028;28.820;2023-05-07T11:17:23;6.17;;;2.90;;
42066;SDS011;27734;47.028;28.820;2023-05-07T11:20:00;4.93;;;2.87;;
42066;SDS011;27734;47.028;28.820;2023-05-07T11:22:47;6.80;;;3.20;;
42066;SDS011;27734;47.028;28.820;2023-05-07T11:25:26;8.87;;;3.00;;
42066;SDS011;27734;47.028;28.820;2023-05-07T11:28:04;4.83;;;2.70;;
42066;SDS011;27734;47.028;28.820;2023-05-07T11:30:37;7.80;;;3.30;;
42066;SDS011;27734;47.028;28.820;2023-05-07T11:33:10;8.03;;;2.90;;
42066;SDS011;27734;47.028;28.820;2023-05-07T11:35:39;7.73;;;2.90;;
42066;SDS011;27734;47.028;28.820;2023-05-07T11:38:11;7.63;;;3.27;;
42066;SDS011;27734;47.028;28.820;2023-05-07T11:40:49;4.30;;;2.83;;
42066;SDS011;27734;47.028;28.820;2023-05-07T11:43:18;5.83;;;2.90;;
42066;SDS011;27734;47.028;28.820;2023-05-07T11:45:46;4.03;;;2.80;;
42066;SDS011;27734;47.028;28.820;2023-05-07T11:48:15;4.53;;;2.70;;
42066;SDS011;27734;47.028;28.820;2023-05-07T11:50:51;6.40;;;2.83;;
42066;SDS011;27734;47.028;28.820;2023-05-07T11:53:20;5.70;;;2.90;;
42066;SDS011;27734;47.028;28.820;2023-05-07T11:55:52;11.40;;;3.30;;
42066;SDS011;27734;47.028;28.820;2023-05-07T11:58:22;8.67;;;2.90;;
42066;SDS011;27734;47.028;28.820;2023-05-07T12:00:53;7.13;;;3.00;;
42066;SDS011;27734;47.028;28.820;2023-05-07T12:03:21;7.65;;;3.05;;
42066;SDS011;27734;47.028;28.820;2023-05-07T12:05:50;7.07;;;2.90;;
42066;SDS011;27734;47.028;28.820;2023-05-07T12:08:19;6.83;;;3.23;;
42066;SDS011;27734;47.028;28.820;2023-05-07T12:10:49;8.43;;;3.00;;
42066;SDS011;27734;47.028;28.820;2023-05-07T12:13:18;5.20;;;3.47;;
42066;SDS011;27734;47.028;28.820;2023-05-07T12:15:50;6.30;;;3.00;;
42066;SDS011;27734;47.028;28.820;2023-05-07T12:18:19;5.23;;;2.60;;
42066;SDS011;27734;47.028;28.820;2023-05-07T12:20:48;4.57;;;2.73;;
42066;SDS011;27734;47.028;28.820;2023-05-07T12:23:17;5.13;;;2.67;;
42066;SDS011;27734;47.028;28.820;2023-05-07T12:25:46;6.97;;;2.67;;
42066;SDS011;27734;47.028;28.820;2023-05-07T12:28:16;6.60;;;2.70;;
42066;SDS011;27734;47.028;28.820;2023-05-07T12:30:45;5.30;;;2.70;;
42066;SDS011;27734;47.028;28.820;2023-05-07T12:33:16;7.33;;;2.90;;
42066;SDS011;27734;47.028;28.820;2023-05-07T12:35:45;4.10;;;2.50;;
42066;SDS011;27734;47.028;28.820;2023-05-07T12:38:17;4.90;;;2.80;;
42066;SDS011;27734;47.028;28.820;2023-05-07T12:40:46;6.47;;;2.87;;
42066;SDS011;27734;47.028;28.820;2023-05-07T12:43:18;7.17;;;2.60;;
42066;SDS011;27734;47.028;28.820;2023-05-07T12:45:48;6.23;;;2.60;;
42066;SDS011;27734;47.028;28.820;2023-05-07T12:48:18;5.50;;;2.67;;
42066;SDS011;27734;47.028;28.820;2023-05-07T12:50:49;7.83;;;2.90;;
42066;SDS011;27734;47.028;28.820;2023-05-07T12:53:19;8.20;;;3.00;;
42066;SDS011;27734;47.028;28.820;2023-05-07T12:55:50;4.75;;;3.00;;
42066;SDS011;27734;47.028;28.820;2023-05-07T12:58:20;7.37;;;2.50;;
42066;SDS011;27734;47.028;28.820;2023-05-07T13:00:54;6.17;;;2.73;;
42066;SDS011;27734;47.028;28.820;2023-05-07T13:03:26;4.80;;;2.90;;
42066;SDS011;27734;47.028;28.820;2023-05-07T13:05:57;5.33;;;2.70;;
42066;SDS011;27734;47.028;28.820;2023-05-07T13:08:27;4.77;;;2.40;;
42066;SDS011;27734;47.028;28.820;2023-05-07T13:10:58;5.93;;;2.87;;
42066;SDS011;27734;47.028;28.820;2023-05-07T13:13:29;4.13;;;2.70;;
42066;SDS011;27734;47.028;28.820;2023-05-07T13:15:59;6.10;;;2.67;;
42066;SDS011;27734;47.028;28.820;2023-05-07T13:18:28;7.63;;;3.13;;
42066;SDS011;27734;47.028;28.820;2023-05-07T13:20:58;6.53;;;3.03;;
42066;SDS011;27734;47.028;28.820;2023-05-07T13:23:27;7.43;;;2.90;;
42066;SDS011;27734;47.028;28.820;2023-05-07T13:25:55;7.10;;;3.13;;
42066;SDS011;27734;47.028;28.820;2023-05-07T13:28:24;14.00;;;3.07;;
42066;SDS011;27734;47.028;28.820;2023-05-07T13:30:53;4.47;;;2.50;;
42066;SDS011;27734;47.028;28.820;2023-05-07T13:33:21;11.27;;;2.80;;
42066;SDS011;27734;47.028;28.820;2023-05-07T13:35:50;6.80;;;3.03;;
42066;SDS011;27734;47.028;28.820;2023-05-07T13:38:19;4.40;;;2.63;;
42066;SDS011;27734;47.028;28.820;2023-05-07T13:40:48;6.70;;;2.93;;
42066;SDS011;27734;47.028;28.820;2023-05-07T13:43:16;7.47;;;3.00;;
42066;SDS011;27734;47.028;28.820;2023-05-07T13:45:45;3.87;;;2.63;;
42066;SDS011;27734;47.028;28.820;2023-05-07T13:48:14;6.13;;;2.63;;
42066;SDS011;27734;47.028;28.820;2023-05-07T13:50:42;4.70;;;2.70;;
42066;SDS011;27734;47.028;28.820;2023-05-07T13:53:11;4.50;;;2.60;;
42066;SDS011;27734;47.028;28.820;2023-05-07T13:55:39;8.90;;;3.00;;
42066;SDS011;27734;47.028;28.820;2023-05-07T13:58:07;4.50;;;2.70;;
42066;SDS011;27734;47.028;28.820;2023-05-07T14:00:36;5.80;;;2.90;;
42066;SDS011;27734;47.028;28.820;2023-05-07T14:03:04;6.67;;;2.80;;
42066;SDS011;27734;47.028;28.820;2023-05-07T14:05:33;6.40;;;2.60;;
42066;SDS011;27734;47.028;28.820;2023-05-07T14:08:02;3.87;;;2.83;;
42066;SDS011;27734;47.028;28.820;2023-05-07T14:10:31;3.87;;;2.43;;
42066;SDS011;27734;47.028;28.820;2023-05-07T14:13:01;6.47;;;3.43;;
42066;SDS011;27734;47.028;28.820;2023-05-07T14:15:29;5.75;;;2.40;;
42066;SDS011;27734;47.028;28.820;2023-05-07T14:17:59;3.73;;;2.80;;
42066;SDS011;27734;47.028;28.820;2023-05-07T14:20:29;5.90;;;2.73;;
42066;SDS011;27734;47.028;28.820;2023-05-07T14:22:57;10.10;;;3.00;;
42066;SDS011;27734;47.028;28.820;2023-05-07T14:25:26;7.10;;;3.00;;
42066;SDS011;27734;47.028;28.820;2023-05-07T14:27:54;3.43;;;2.60;;
42066;SDS011;27734;47.028;28.820;2023-05-07T14:30:23;4.23;;;2.70;;
42066;SDS011;27734;47.028;28.820;2023-05-07T14:32:52;6.00;;;2.80;;
42066;SDS011;27734;47.028;28.820;2023-05-07T14:35:20;6.30;;;2.80;;
42066;SDS011;27734;47.028;28.820;2023-05-07T14:37:49;5.50;;;2.77;;
42066;SDS011;27734;47.028;28.820;2023-05-07T14:40:17;6.10;;;2.80;;
42066;SDS011;27734;47.028;28.820;2023-05-07T14:42:46;6.35;;;2.80;;
42066;SDS011;27734;47.028;28.820;2023-05-07T14:45:14;5.50;;;2.97;;
42066;SDS011;27734;47.028;28.820;2023-05-07T14:47:43;5.50;;;2.60;;
42066;SDS011;27734;47.028;28.820;2023-05-07T14:50:11;10.50;;;3.00;;
42066;SDS011;27734;47.028;28.820;2023-05-07T14:52:40;4.83;;;2.80;;
42066;SDS011;27734;47.028;28.820;2023-05-07T14:55:09;5.83;;;2.60;;
42066;SDS011;27734;47.028;28.820;2023-05-07T14:57:37;4.30;;;2.50;;
42066;SDS011;27734;47.028;28.820;2023-05-07T15:00:08;5.93;;;3.03;;
42066;SDS011;27734;47.028;28.820;2023-05-07T15:02:37;4.63;;;2.43;;